메인 페이지
METAR-TAF:

METAR-TAF

공항 :

코크, 아일랜드

위도: 51-51N, 경도: 008-29W, 고도: 153m

현재 날씨관측

예보는 16분 전, 04:30시(UTC)에 발표되었습니다.
북북서9kt
온도 12°C
습도 88%
기압 1017 hPa
시정 10km 이상
고도 1000ft 상공 구름 조금
고도 2500ft 상공 구름 보통
고도 6000ft 상공 구름 많음

METAR: EICK 130430Z 33009KT 9999 FEW010 SCT025 BKN060 12/10 Q1017 NOSIG

시각: 05:46 (04:46 UTC)

예보

예보는 5 시간 46분 전, 23:00시(UTC)에 발표되었습니다.
예보 대상 시간: 13일 00시부터 13일 24시까지 (UTC)
북서9kt
시정 10km 이상
고도 2000ft 상공 구름 조금
고도 5000ft 상공 구름 많음
확률 30% :
일시적
13일 07시부터 13일 10시까지 (UTC)
고도 1200ft 상공 구름 많음

TAF: EICK 122300Z 1300/1324 32009KT 9999 FEW020 BKN050 PROB30 TEMPO 1307/1310 BKN012

4,000개 이상의 공항 관측 자료 및 예보 (METAR 및 TAF 보고).

지도상에서 검색 가능한 기상관측소가 노란 점과 빨간 점으로 표시되어 있습니다.

기상관측소 명을 보려면 표시 위로 마우스를 이동하세요.

날씨 관측과 예보를 보려면 클릭하세요.

지도 변경 : 확대하려면 엑스 표시가 있는 녹색 버튼, 축소하려면 빼기 표시가 있는 녹색 버튼, 다음 페이지의 지도를 보려면 녹색 화살표를 클릭하세요.


METAR-TAF: